Time;durP1;ratioP1;P1;durP2;ratioP2;P2;SDS_P1;SDS_P2;PMS_P1;PMS_P2;Temp;Humidity;BMP_temperature;BMP_pressure;BME280_temperature;BME280_humidity;BME280_pressure;Samples;Min_cycle;Max_cycle;Signal;HPM_P1;HPM_P2
2022/10/01 00:00:50;;;;;;;15.45;12.30;;;;;;;15.06;74.42;99873.00;5071763;28;20040;-60
2022/10/01 00:03:16;;;;;;;16.30;12.95;;;;;;;15.13;74.32;99875.94;5073182;28;20451;-60
2022/10/01 00:05:42;;;;;;;16.40;13.13;;;;;;;15.12;74.18;99869.72;5073198;28;20040;-60
2022/10/01 00:08:08;;;;;;;19.48;13.52;;;;;;;15.09;74.26;99863.75;5073175;28;20024;-60
2022/10/01 00:10:35;;;;;;;16.45;12.73;;;;;;;15.12;74.21;99861.63;5072426;28;20033;-58
2022/10/01 00:13:01;;;;;;;15.65;12.65;;;;;;;15.12;74.50;99858.06;5071808;28;20477;-61
2022/10/01 00:15:27;;;;;;;17.00;13.00;;;;;;;15.11;74.43;99853.66;5072786;28;20021;-60
2022/10/01 00:17:52;;;;;;;20.17;13.50;;;;;;;15.12;74.51;99863.44;5072256;28;20039;-60
2022/10/01 00:20:18;;;;;;;17.20;13.38;;;;;;;15.11;74.59;99862.63;5072188;28;20111;-59
2022/10/01 00:22:44;;;;;;;16.80;13.32;;;;;;;15.15;74.40;99868.53;5073028;28;20037;-59
2022/10/01 00:25:10;;;;;;;20.77;14.15;;;;;;;15.27;73.75;99866.47;5072329;28;20059;-58
2022/10/01 00:27:36;;;;;;;17.95;13.43;;;;;;;15.00;74.43;99850.22;5072892;28;20036;-61
2022/10/01 00:30:04;;;;;;;18.65;13.50;;;;;;;15.04;74.91;99873.16;5071473;28;20035;-60
2022/10/01 00:32:31;;;;;;;19.88;13.52;;;;;;;14.99;75.16;99869.22;5072619;28;20177;-59
2022/10/01 00:35:01;;;;;;;19.80;14.35;;;;;;;15.00;75.28;99865.53;5072174;28;20391;-60
2022/10/01 00:37:28;;;;;;;18.85;13.40;;;;;;;14.99;75.16;99864.69;5072981;28;20054;-60
2022/10/01 00:39:54;;;;;;;20.73;15.98;;;;;;;15.00;74.94;99860.13;5072006;28;20606;-60
2022/10/01 00:42:23;;;;;;;27.58;16.33;;;;;;;15.05;74.87;99876.69;5071784;28;20107;-60
2022/10/01 00:44:49;;;;;;;34.50;25.40;;;;;;;15.12;74.25;99864.31;5072518;28;20086;-58
2022/10/01 00:47:18;;;;;;;33.50;23.83;;;;;;;14.98;75.03;99857.59;5072696;28;20028;-59
2022/10/01 00:49:46;;;;;;;32.10;23.88;;;;;;;14.96;75.21;99865.00;5072124;28;20123;-60
2022/10/01 00:52:17;;;;;;;35.45;22.90;;;;;;;14.91;75.69;99856.50;5072184;28;20429;-61
2022/10/01 00:54:54;;;;;;;36.60;23.33;;;;;;;14.93;75.95;99855.34;5071813;28;20074;-60
2022/10/01 00:57:23;;;;;;;35.20;23.02;;;;;;;14.96;75.20;99854.22;5072199;28;20463;-61
2022/10/01 00:59:50;;;;;;;35.42;21.83;;;;;;;14.96;75.41;99859.59;5071826;28;20494;-59
2022/10/01 01:02:16;;;;;;;37.35;23.23;;;;;;;14.90;75.13;99854.78;5072412;28;20028;-60
2022/10/01 01:04:42;;;;;;;34.90;22.23;;;;;;;14.93;75.10;99860.75;5072314;28;20040;-60
2022/10/01 01:07:08;;;;;;;35.70;22.95;;;;;;;14.80;75.92;99862.09;5070855;28;20596;-60
2022/10/01 01:09:38;;;;;;;40.33;22.42;;;;;;;14.88;75.82;99854.09;5071030;28;20143;-60
2022/10/01 01:12:36;;;;;;;34.20;21.10;;;;;;;14.93;75.80;99858.03;5072019;28;20060;-61
2022/10/01 01:15:17;;;;;;;31.73;19.95;;;;;;;14.91;75.15;99829.53;5063971;28;20045;-60
2022/10/01 01:18:05;;;;;;;32.80;19.98;;;;;;;15.03;75.12;99851.72;5072104;28;20035;-60
2022/10/01 01:21:03;;;;;;;35.65;20.67;;;;;;;14.96;75.50;99856.91;5071731;28;20041;-59
2022/10/01 01:23:53;;;;;;;31.42;19.60;;;;;;;14.93;75.88;99849.09;5072199;28;20157;-60
2022/10/01 01:26:30;;;;;;;32.17;19.17;;;;;;;14.85;76.54;99849.00;5076115;28;20040;-63
2022/10/01 01:29:08;;;;;;;27.40;17.67;;;;;;;14.85;76.56;99852.56;5091879;28;20060;-60
2022/10/01 01:31:42;;;;;;;27.45;18.13;;;;;;;14.88;76.86;99856.78;5075767;28;20063;-60
2022/10/01 01:34:11;;;;;;;29.70;18.23;;;;;;;14.87;76.82;99844.31;5075847;28;20032;-60
2022/10/01 01:36:43;;;;;;;27.98;17.52;;;;;;;14.91;76.51;99835.78;5075513;28;20020;-60
2022/10/01 01:39:13;;;;;;;27.70;17.95;;;;;;;14.90;76.58;99827.84;5075924;28;20405;-61
2022/10/01 01:41:47;;;;;;;25.30;17.05;;;;;;;14.78;76.62;99811.91;5075423;28;20032;-60
2022/10/01 01:44:15;;;;;;;27.75;17.67;;;;;;;14.93;76.01;99832.91;5075784;28;20443;-60
2022/10/01 01:46:45;;;;;;;27.38;17.80;;;;;;;14.91;76.59;99851.09;5075556;28;20035;-61
2022/10/01 01:49:16;;;;;;;21.10;15.07;;;;;;;14.94;76.17;99842.69;5074324;28;20044;-59
2022/10/01 01:51:47;;;;;;;25.70;15.80;;;;;;;14.90;76.23;99844.88;5075440;28;20057;-61
2022/10/01 01:54:13;;;;;;;22.58;15.55;;;;;;;14.74;76.65;99837.47;5074656;28;20029;-61
2022/10/01 01:56:38;;;;;;;24.77;15.98;;;;;;;14.67;77.14;99836.31;5075501;28;20374;-60
2022/10/01 01:59:04;;;;;;;24.60;15.45;;;;;;;14.67;76.48;99835.47;5074992;28;20062;-60
2022/10/01 02:01:38;;;;;;;21.40;14.70;;;;;;;14.74;76.86;99842.84;5074535;28;20189;-60
2022/10/01 02:04:33;;;;;;;27.13;14.55;;;;;;;14.71;77.18;99850.38;5075624;28;20039;-61
2022/10/01 02:07:15;;;;;;;19.77;13.68;;;;;;;14.71;77.05;99842.28;5075325;28;20040;-59
2022/10/01 02:10:02;;;;;;;24.33;14.52;;;;;;;14.69;76.73;99837.00;5075052;28;20059;-60
2022/10/01 02:12:54;;;;;;;20.38;13.27;;;;;;;14.78;76.16;99843.38;5075401;28;20048;-61
2022/10/01 02:15:26;;;;;;;20.73;13.52;;;;;;;14.61;77.20;99834.22;5075429;28;20135;-60
2022/10/01 02:18:08;;;;;;;22.15;13.60;;;;;;;14.58;77.57;99834.53;5074290;28;20335;-59
2022/10/01 02:21:14;;;;;;;22.27;13.52;;;;;;;14.66;77.96;99829.22;5075239;28;20033;-60
2022/10/01 02:23:48;;;;;;;20.70;13.87;;;;;;;14.59;77.83;99830.84;4997389;28;20033;-60
2022/10/01 02:26:19;;;;;;;17.02;11.52;;;;;;;14.59;77.79;99823.63;5050079;28;20197;-60
2022/10/01 02:28:48;;;;;;;18.85;12.70;;;;;;;14.42;77.67;99800.16;5074324;28;20355;-60
2022/10/01 02:31:16;;;;;;;17.50;11.82;;;;;;;14.43;77.55;99810.75;5075025;28;20037;-61
2022/10/01 02:33:44;;;;;;;19.63;13.45;;;;;;;14.48;77.85;99821.97;5074934;28;20135;-60
2022/10/01 02:36:13;;;;;;;18.27;12.13;;;;;;;14.51;77.53;99818.09;5073888;28;20047;-60
2022/10/01 02:38:42;;;;;;;18.48;12.18;;;;;;;14.48;77.84;99807.63;5074485;28;20386;-60
2022/10/01 02:41:12;;;;;;;19.95;11.65;;;;;;;14.45;77.68;99814.16;5074367;28;20033;-60
2022/10/01 02:43:46;;;;;;;16.85;11.02;;;;;;;14.52;78.01;99802.81;5074882;28;20036;-60
2022/10/01 02:46:51;;;;;;;11.90;8.18;;;;;;;14.71;76.84;99802.72;5073787;28;20029;-60
2022/10/01 02:49:17;;;;;;;13.93;8.90;;;;;;;14.60;76.60;99805.59;5066148;28;20064;-60
2022/10/01 02:51:52;;;;;;;16.30;9.50;;;;;;;14.63;76.91;99810.66;5074625;28;20048;-60
2022/10/01 02:54:28;;;;;;;14.57;8.80;;;;;;;14.61;76.76;99805.44;5074529;28;20036;-61
2022/10/01 02:59:38;;;;;;;10.35;7.95;;;;;;;14.56;76.25;99798.81;5073968;28;20142;-60
2022/10/01 03:02:04;;;;;;;8.70;7.38;;;;;;;14.58;76.03;99792.25;5074467;28;20087;-60
2022/10/01 03:04:29;;;;;;;10.98;7.57;;;;;;;14.45;76.46;99792.59;5073950;28;20025;-61
2022/10/01 03:06:57;;;;;;;10.15;7.80;;;;;;;14.37;76.76;99787.13;5073999;28;20037;-61
2022/10/01 03:09:23;;;;;;;10.70;8.00;;;;;;;14.33;76.96;99794.66;5073222;28;20123;-58
2022/10/01 03:11:48;;;;;;;10.85;7.95;;;;;;;14.40;76.89;99794.06;5073949;28;20491;-60
2022/10/01 03:14:13;;;;;;;10.27;7.38;;;;;;;14.32;77.09;99792.13;5074189;28;21080;-61
2022/10/01 03:16:39;;;;;;;11.15;8.27;;;;;;;14.31;77.47;99793.94;5073653;28;20036;-57
2022/10/01 03:19:04;;;;;;;10.60;8.40;;;;;;;14.36;77.09;99796.22;5072353;28;20111;-59
2022/10/01 03:21:30;;;;;;;11.43;8.38;;;;;;;14.38;76.87;99791.53;5072775;28;20063;-60
2022/10/01 03:23:55;;;;;;;10.05;8.23;;;;;;;14.19;77.68;99773.63;5073829;28;20115;-62
2022/10/01 03:26:21;;;;;;;9.18;7.60;;;;;;;14.40;77.07;99789.53;5074403;28;20033;-60
2022/10/01 03:28:46;;;;;;;10.32;7.97;;;;;;;14.41;76.96;99790.38;5073422;28;20455;-60
2022/10/01 03:31:12;;;;;;;11.48;8.13;;;;;;;14.40;77.55;99792.22;5073615;28;20470;-60
2022/10/01 03:33:37;;;;;;;11.00;7.60;;;;;;;14.47;76.95;99789.78;5074000;28;20025;-60
2022/10/01 03:36:03;;;;;;;11.40;8.55;;;;;;;14.49;76.91;99799.41;5073578;28;20032;-60
2022/10/01 03:38:30;;;;;;;10.30;8.13;;;;;;;14.52;76.30;99798.25;5073423;28;20020;-61
2022/10/01 03:40:55;;;;;;;9.88;7.80;;;;;;;14.41;77.43;99791.22;5073870;28;20367;-59
2022/10/01 03:43:21;;;;;;;10.70;8.93;;;;;;;14.52;76.44;99783.94;5073686;28;20028;-59
2022/10/01 03:45:46;;;;;;;12.55;9.10;;;;;;;14.52;76.40;99789.34;5073263;28;20108;-59
2022/10/01 03:48:12;;;;;;;14.23;9.32;;;;;;;14.41;76.89;99780.44;5072181;28;20021;-61
2022/10/01 03:50:37;;;;;;;11.05;8.25;;;;;;;14.37;77.47;99772.84;5073578;28;20032;-60
2022/10/01 03:53:03;;;;;;;13.35;9.07;;;;;;;14.40;77.19;99773.38;5071552;28;20108;-64
2022/10/01 03:55:28;;;;;;;13.07;9.27;;;;;;;14.19;77.54;99744.84;5073153;28;20036;-60
2022/10/01 03:57:54;;;;;;;16.10;9.32;;;;;;;14.37;77.66;99776.34;5073574;28;20052;-60
2022/10/01 04:00:19;;;;;;;14.38;9.40;;;;;;;14.43;77.27;99778.44;5073251;28;20112;-59
2022/10/01 04:02:45;;;;;;;13.18;9.07;;;;;;;14.44;77.34;99774.75;5088757;28;20124;-59
2022/10/01 04:05:11;;;;;;;14.27;9.35;;;;;;;14.41;77.68;99777.75;5072870;28;20370;-62
2022/10/01 04:07:36;;;;;;;12.52;9.80;;;;;;;14.46;77.59;99780.84;5073094;28;20041;-66
2022/10/01 04:10:02;;;;;;;19.40;10.80;;;;;;;14.60;76.73;99778.66;5068229;28;20090;-66
2022/10/01 04:12:29;;;;;;;19.00;10.93;;;;;;;14.57;76.79;99776.25;5073220;28;20032;-60
2022/10/01 04:14:54;;;;;;;18.58;11.23;;;;;;;14.63;76.46;99772.94;5072792;28;20213;-56
2022/10/01 04:17:20;;;;;;;19.23;11.30;;;;;;;14.47;76.96;99779.88;5071572;28;20399;-63
2022/10/01 04:19:45;;;;;;;21.42;12.10;;;;;;;14.41;77.27;99779.59;5054671;28;20454;-62
2022/10/01 04:22:11;;;;;;;19.58;11.27;;;;;;;14.45;77.37;99787.22;5072682;28;20036;-53
2022/10/01 04:24:36;;;;;;;17.25;11.30;;;;;;;14.38;77.89;99779.91;5072600;28;20032;-58
2022/10/01 04:27:02;;;;;;;23.73;11.43;;;;;;;14.44;77.87;99782.84;5072356;28;20020;-54
2022/10/01 04:29:27;;;;;;;23.55;12.02;;;;;;;14.41;77.94;99772.38;5072091;28;20119;-53
2022/10/01 04:31:53;;;;;;;23.98;11.77;;;;;;;14.47;77.61;99784.38;5072269;28;20040;-54
2022/10/01 04:34:50;;;;;;;19.30;11.73;;;;;;;14.49;77.62;99788.63;5072433;28;20040;-52
2022/10/01 04:37:04;;;;;;;23.95;12.15;;;;;;;14.54;77.43;99773.88;5072183;28;20480;-52
2022/10/01 04:39:30;;;;;;;24.13;11.93;;;;;;;14.52;77.77;99784.78;5071948;28;20040;-59
2022/10/01 04:41:55;;;;;;;21.58;12.50;;;;;;;14.55;77.55;99789.03;5072579;28;20570;-61
2022/10/01 04:44:21;;;;;;;22.83;12.20;;;;;;;14.54;78.05;99774.69;5071621;28;20021;-61
2022/10/01 04:46:46;;;;;;;24.60;11.65;;;;;;;14.49;78.04;99769.78;5072536;28;20125;-61
2022/10/01 04:49:12;;;;;;;25.80;12.50;;;;;;;14.52;77.09;99762.41;5071005;28;20067;-62
2022/10/01 04:51:37;;;;;;;23.05;12.43;;;;;;;14.56;77.58;99778.09;5071156;28;20036;-63
2022/10/01 04:54:03;;;;;;;23.80;12.02;;;;;;;14.46;77.51;99755.75;5071446;28;20063;-62
2022/10/01 04:56:28;;;;;;;24.98;11.93;;;;;;;14.60;77.56;99779.50;5071830;28;20037;-61
2022/10/01 04:58:53;;;;;;;21.88;12.18;;;;;;;14.61;77.37;99773.13;5071560;28;20411;-62
2022/10/01 05:01:19;;;;;;;22.50;14.07;;;;;;;14.69;77.33;99776.88;5070242;28;20474;-62
2022/10/01 05:03:46;;;;;;;24.67;13.10;;;;;;;14.62;77.44;99771.25;5071437;28;20101;-61
2022/10/01 05:06:11;;;;;;;30.30;15.35;;;;;;;14.62;77.97;99774.81;5072103;28;20051;-63
2022/10/01 05:08:37;;;;;;;23.40;14.00;;;;;;;14.69;77.56;99777.72;5071357;28;20040;-61
2022/10/01 05:11:02;;;;;;;28.73;14.40;;;;;;;14.73;78.15;99779.16;5071466;28;20021;-61
2022/10/01 05:13:28;;;;;;;23.15;13.70;;;;;;;14.78;77.48;99773.31;5071459;28;20036;-65
2022/10/01 05:15:54;;;;;;;27.00;15.15;;;;;;;14.81;77.42;99769.47;5071594;28;20101;-62
2022/10/01 05:18:19;;;;;;;23.48;14.55;;;;;;;14.87;77.60;99785.00;5072192;28;20033;-63
2022/10/01 05:20:45;;;;;;;28.30;15.88;;;;;;;14.88;77.56;99771.41;5070910;28;20102;-61
2022/10/01 05:23:11;;;;;;;45.03;22.95;;;;;;;14.95;77.89;99773.47;5071236;28;20024;-61
2022/10/01 05:25:36;;;;;;;46.10;23.33;;;;;;;14.98;77.72;99779.41;5070757;28;20048;-61
2022/10/01 05:28:04;;;;;;;46.95;23.83;;;;;;;14.98;78.20;99778.56;5071632;28;20108;-65
2022/10/01 05:30:30;;;;;;;47.55;24.35;;;;;;;15.03;77.94;99778.94;5071573;28;20062;-57
2022/10/01 05:32:57;;;;;;;46.70;23.75;;;;;;;14.92;78.32;99756.59;5070654;28;20024;-59
2022/10/01 05:35:23;;;;;;;45.90;24.65;;;;;;;14.91;78.17;99748.66;5071298;28;20064;-56
2022/10/01 05:37:53;;;;;;;46.55;23.13;;;;;;;15.09;78.37;99769.38;5071941;28;20134;-60
2022/10/01 05:40:19;;;;;;;40.35;21.73;;;;;;;15.06;78.36;99774.09;5071728;28;20055;-58
2022/10/01 05:42:45;;;;;;;43.10;22.08;;;;;;;15.07;78.32;99775.78;5071972;28;20443;-59
2022/10/01 05:45:11;;;;;;;44.08;22.40;;;;;;;15.09;78.50;99772.09;5072147;28;20451;-58
2022/10/01 05:47:38;;;;;;;42.08;21.70;;;;;;;15.12;78.95;99760.97;5072038;28;20120;-60
2022/10/01 05:50:04;;;;;;;42.28;20.75;;;;;;;15.10;78.59;99758.47;5071610;28;20052;-67
2022/10/01 05:52:29;;;;;;;47.50;22.40;;;;;;;15.22;78.33;99756.38;5072350;28;20036;-63
2022/10/01 05:54:55;;;;;;;44.45;21.80;;;;;;;15.29;78.15;99751.19;5071075;28;20036;-61
2022/10/01 05:57:20;;;;;;;52.33;23.75;;;;;;;15.32;78.09;99762.50;5071489;28;20032;-62
2022/10/01 05:59:45;;;;;;;52.28;25.27;;;;;;;15.28;77.62;99744.94;5087088;28;20458;-61
2022/10/01 06:02:11;;;;;;;56.60;26.80;;;;;;;15.30;77.85;99748.34;5054457;28;20121;-63
2022/10/01 06:04:36;;;;;;;53.72;25.65;;;;;;;15.32;77.62;99750.88;5071910;28;20163;-62
2022/10/01 06:07:02;;;;;;;65.45;30.10;;;;;;;15.38;77.18;99749.41;5071379;28;20036;-63
2022/10/01 06:09:27;;;;;;;62.08;27.98;;;;;;;15.30;77.35;99752.88;5070903;28;20037;-63
2022/10/01 06:11:54;;;;;;;63.45;28.98;;;;;;;15.31;77.37;99760.81;5073028;28;20032;-61
2022/10/01 06:14:19;;;;;;;56.88;27.27;;;;;;;15.31;77.64;99750.03;5074592;28;20035;-61
2022/10/01 06:16:45;;;;;;;62.95;27.52;;;;;;;15.34;77.47;99746.19;5074460;28;20036;-62
2022/10/01 06:19:11;;;;;;;58.22;27.45;;;;;;;15.40;77.68;99740.16;5056975;28;20489;-62
2022/10/01 06:21:36;;;;;;;59.45;28.17;;;;;;;15.42;77.24;99739.97;5075318;28;20060;-61
2022/10/01 06:24:02;;;;;;;62.97;30.52;;;;;;;15.52;76.96;99747.97;5075491;28;20435;-62
2022/10/01 06:26:27;;;;;;;62.88;28.65;;;;;;;15.51;76.85;99744.44;5074979;28;20462;-61
2022/10/01 06:28:53;;;;;;;59.25;29.20;;;;;;;15.49;76.50;99731.09;5073652;28;20028;-64
2022/10/01 06:31:20;;;;;;;61.05;27.48;;;;;;;15.55;76.32;99743.13;5075088;28;20039;-60
2022/10/01 06:33:45;;;;;;;61.20;29.35;;;;;;;15.44;76.75;99716.41;5074945;28;20035;-60
2022/10/01 06:36:11;;;;;;;56.67;27.30;;;;;;;15.44;76.69;99713.72;5074023;28;20024;-62
2022/10/01 06:38:36;;;;;;;61.50;29.92;;;;;;;15.60;76.07;99737.25;5073160;28;20458;-68
2022/10/01 06:41:05;;;;;;;60.47;30.33;;;;;;;15.61;76.39;99744.34;5075011;28;20032;-62
2022/10/01 06:43:32;;;;;;;57.47;27.83;;;;;;;15.65;76.56;99729.53;5074821;28;20025;-62
2022/10/01 06:46:01;;;;;;;63.35;29.35;;;;;;;15.77;75.87;99732.78;5074785;28;20072;-62
2022/10/01 06:48:29;;;;;;;54.03;27.00;;;;;;;15.79;75.62;99726.25;5074123;28;20373;-62
2022/10/01 06:50:56;;;;;;;59.83;30.30;;;;;;;15.89;75.88;99715.31;5074400;28;20040;-62
2022/10/01 06:53:21;;;;;;;56.03;28.85;;;;;;;15.85;74.87;99692.34;5069053;28;20052;-60
2022/10/01 06:55:48;;;;;;;52.70;27.70;;;;;;;16.11;74.94;99723.88;5073811;28;20033;-60
2022/10/01 06:58:14;;;;;;;57.97;28.55;;;;;;;16.18;74.34;99713.25;5074402;28;20032;-60
2022/10/01 07:00:40;;;;;;;57.30;29.10;;;;;;;16.24;74.15;99707.19;5074177;28;20032;-60
2022/10/01 07:03:11;;;;;;;56.85;29.13;;;;;;;16.36;73.93;99708.59;5074028;28;20032;-61
2022/10/01 07:05:37;;;;;;;56.63;29.27;;;;;;;16.47;73.34;99706.59;5073897;28;20033;-64
2022/10/01 07:08:03;;;;;;;57.70;29.30;;;;;;;16.51;72.87;99697.13;5074354;28;20035;-59
2022/10/01 07:10:30;;;;;;;52.63;28.60;;;;;;;16.44;72.51;99678.06;5074086;28;20190;-61
2022/10/01 07:12:55;;;;;;;58.33;29.42;;;;;;;16.60;72.44;99700.69;5073509;28;20020;-59
2022/10/01 07:15:21;;;;;;;56.67;29.98;;;;;;;16.59;72.30;99709.81;5073584;28;20028;-61
2022/10/01 07:17:48;;;;;;;54.10;29.20;;;;;;;16.54;72.69;99702.25;5073242;28;20420;-54
2022/10/01 07:20:18;;;;;;;52.55;29.10;;;;;;;16.52;73.02;99701.56;5073690;28;20463;-53
2022/10/01 07:22:45;;;;;;;59.85;31.25;;;;;;;16.54;72.22;99706.78;5072787;28;20032;-55
2022/10/01 07:25:11;;;;;;;54.38;31.67;;;;;;;16.45;72.72;99701.38;5073194;28;20032;-63
2022/10/01 07:27:37;;;;;;;50.60;29.77;;;;;;;16.41;73.13;99694.59;5072240;28;20031;-56
2022/10/01 07:30:03;;;;;;;48.38;30.08;;;;;;;16.39;72.27;99672.28;5073522;28;20119;-56
2022/10/01 07:32:30;;;;;;;47.70;30.20;;;;;;;16.49;72.03;99693.75;5073658;28;20105;-59
2022/10/01 07:34:56;;;;;;;50.13;29.75;;;;;;;16.24;72.99;99669.38;5073251;28;20027;-57
2022/10/01 07:37:22;;;;;;;45.05;28.33;;;;;;;16.39;72.66;99693.91;5073377;28;20473;-60
2022/10/01 07:39:48;;;;;;;41.65;26.90;;;;;;;16.32;72.49;99677.53;5073567;28;20028;-60
2022/10/01 07:42:14;;;;;;;42.40;28.38;;;;;;;16.31;72.80;99685.78;5055831;28;20400;-60
2022/10/01 07:44:39;;;;;;;44.50;29.10;;;;;;;16.34;73.46;99680.91;5073020;28;20032;-59
2022/10/01 07:47:05;;;;;;;42.17;29.00;;;;;;;16.41;72.60;99686.50;5072839;28;20115;-60
2022/10/01 07:49:30;;;;;;;42.15;28.48;;;;;;;16.39;72.91;99693.06;5073328;28;20417;-60
2022/10/01 07:51:57;;;;;;;42.97;27.38;;;;;;;16.30;72.93;99665.19;5073377;28;20047;-60
2022/10/01 07:54:23;;;;;;;41.53;28.48;;;;;;;16.39;72.82;99682.25;5072773;28;20382;-60
2022/10/01 07:56:54;;;;;;;40.38;28.30;;;;;;;16.42;72.91;99679.22;5073209;28;20024;-61
2022/10/01 07:59:21;;;;;;;39.72;26.70;;;;;;;16.31;72.32;99647.97;5073454;28;20098;-60
2022/10/01 08:01:52;;;;;;;40.67;28.58;;;;;;;16.50;72.46;99666.59;5072169;28;20450;-61
2022/10/01 08:07:04;;;;;;;42.37;27.77;;;;;;;16.40;72.94;99663.19;5073250;28;20446;-60
2022/10/01 08:09:29;;;;;;;42.65;28.50;;;;;;;16.36;72.43;99659.97;5073285;28;20250;-60
2022/10/01 08:11:55;;;;;;;40.97;28.73;;;;;;;16.29;73.18;99656.25;5073004;28;20043;-61
2022/10/01 08:14:20;;;;;;;41.83;29.20;;;;;;;16.28;73.24;99651.84;5072845;28;20031;-62
2022/10/01 08:16:46;;;;;;;42.58;28.83;;;;;;;16.29;73.17;99642.75;5073162;28;20058;-60
2022/10/01 08:19:13;;;;;;;41.08;27.58;;;;;;;16.26;73.40;99645.75;5072511;28;20033;-64
2022/10/01 08:21:39;;;;;;;39.92;28.25;;;;;;;16.27;73.50;99636.63;5073032;28;20456;-61
2022/10/01 08:24:05;;;;;;;42.72;30.05;;;;;;;16.35;73.43;99643.91;5071110;28;20111;-60
2022/10/01 08:26:31;;;;;;;45.55;30.10;;;;;;;16.44;73.35;99633.97;5072503;28;20372;-61
2022/10/01 08:28:56;;;;;;;41.45;28.73;;;;;;;16.57;72.80;99628.94;5073048;28;20112;-61
2022/10/01 08:31:22;;;;;;;42.40;28.27;;;;;;;16.72;72.38;99629.09;5072625;28;20074;-60
2022/10/01 08:33:49;;;;;;;42.15;28.35;;;;;;;16.86;72.20;99624.00;5071692;28;20463;-60
2022/10/01 08:36:15;;;;;;;40.28;28.30;;;;;;;16.96;71.89;99624.69;5072712;28;20520;-61
2022/10/01 08:38:44;;;;;;;41.47;28.55;;;;;;;17.08;71.51;99631.47;5073126;28;20062;-61
2022/10/01 08:41:42;;;;;;;50.53;29.58;;;;;;;17.16;70.79;99624.38;5072801;28;20036;-59
2022/10/01 08:44:17;;;;;;;45.45;30.30;;;;;;;17.07;70.90;99620.81;5049115;28;20045;-63
2022/10/01 08:46:44;;;;;;;42.55;28.15;;;;;;;16.95;71.12;99612.19;5071414;28;20033;-64
2022/10/01 08:49:19;;;;;;;49.95;31.17;;;;;;;16.98;71.21;99616.41;5072592;28;20048;-61
2022/10/01 08:51:57;;;;;;;45.67;29.13;;;;;;;17.00;71.81;99620.66;5088156;28;20120;-60
2022/10/01 08:54:45;;;;;;;46.15;29.20;;;;;;;16.90;71.35;99615.41;5070969;28;20028;-61
2022/10/01 08:57:23;;;;;;;47.05;30.77;;;;;;;16.87;71.68;99604.06;5052313;28;20029;-61
2022/10/01 08:59:53;;;;;;;47.38;30.15;;;;;;;16.65;72.08;99580.28;5052274;28;20038;-60
2022/10/01 09:02:26;;;;;;;50.28;29.83;;;;;;;16.75;72.42;99598.16;5052263;28;20100;-61
2022/10/01 09:04:56;;;;;;;46.50;31.08;;;;;;;16.70;72.44;99600.53;5053417;28;20037;-61
2022/10/01 09:07:53;;;;;;;42.78;29.88;;;;;;;16.83;72.43;99600.88;5071958;28;20463;-61
2022/10/01 09:10:24;;;;;;;46.08;30.45;;;;;;;16.67;72.43;99592.78;5071730;28;20473;-61
2022/10/01 09:12:50;;;;;;;43.83;28.63;;;;;;;16.63;72.10;99592.25;5068765;28;20048;-62
2022/10/01 09:15:38;;;;;;;49.22;31.70;;;;;;;16.58;72.39;99578.41;5069549;28;20037;-64
2022/10/01 09:18:18;;;;;;;44.53;31.13;;;;;;;16.56;73.22;99588.53;5068848;28;20031;-61
2022/10/01 09:20:53;;;;;;;48.17;31.27;;;;;;;16.58;73.21;99586.50;5069322;28;20448;-60
2022/10/01 09:23:19;;;;;;;49.13;30.42;;;;;;;16.57;72.79;99580.28;5069659;28;20539;-60
2022/10/01 09:25:52;;;;;;;46.00;31.13;;;;;;;16.59;72.77;99574.69;5069992;28;20037;-61
2022/10/01 09:28:20;;;;;;;47.17;30.58;;;;;;;16.67;72.62;99566.59;5072151;28;20093;-61
2022/10/01 09:31:10;;;;;;;43.80;28.23;;;;;;;16.71;73.06;99570.63;5071741;28;20037;-63
2022/10/01 09:33:39;;;;;;;44.35;29.63;;;;;;;16.70;72.89;99570.81;5071185;28;20824;-62
2022/10/01 09:36:23;;;;;;;42.75;27.92;;;;;;;16.86;72.83;99573.50;5070999;28;20108;-60
2022/10/01 09:39:27;;;;;;;42.20;28.90;;;;;;;16.89;72.41;99556.09;5071455;28;20339;-62
2022/10/01 09:41:52;;;;;;;43.08;28.08;;;;;;;16.73;72.14;99554.25;5049330;28;20068;-60
2022/10/01 09:44:26;;;;;;;42.55;28.92;;;;;;;16.78;72.52;99560.00;5070074;28;20382;-61
2022/10/01 09:46:54;;;;;;;40.20;28.00;;;;;;;16.65;72.71;99545.13;5075290;28;20032;-59
2022/10/01 09:49:33;;;;;;;46.30;29.85;;;;;;;16.69;72.67;99548.34;5074248;28;20382;-64
2022/10/01 09:52:38;;;;;;;46.53;30.23;;;;;;;16.73;73.55;99541.56;5054488;28;20530;-61
2022/10/01 09:55:21;;;;;;;42.80;30.13;;;;;;;16.73;72.85;99538.00;5037596;28;20179;-62
2022/10/01 09:57:56;;;;;;;41.10;28.48;;;;;;;16.83;73.06;99537.84;5065981;28;20444;-61
2022/10/01 10:00:26;;;;;;;52.28;30.70;;;;;;;16.90;72.55;99542.38;5070793;28;20058;-60
2022/10/01 10:02:54;;;;;;;46.13;32.10;;;;;;;16.89;72.24;99524.47;5075529;28;20074;-60
2022/10/01 10:05:26;;;;;;;51.33;34.25;;;;;;;16.98;72.09;99533.44;5075418;28;20052;-61
2022/10/01 10:07:58;;;;;;;50.55;31.25;;;;;;;16.91;72.37;99519.75;5073966;28;20071;-60
2022/10/01 10:10:38;;;;;;;50.25;33.10;;;;;;;16.91;72.99;99524.31;5074954;28;20110;-61
2022/10/01 10:13:23;;;;;;;51.15;31.88;;;;;;;16.91;73.29;99519.75;5075201;28;20420;-60
2022/10/01 10:15:55;;;;;;;49.40;33.27;;;;;;;16.86;72.79;99513.16;5075197;28;20032;-64
2022/10/01 10:18:33;;;;;;;55.20;32.35;;;;;;;16.86;72.82;99513.16;5074554;28;20339;-61
2022/10/01 10:21:02;;;;;;;45.72;31.23;;;;;;;16.73;73.62;99508.28;5073572;28;20032;-60
2022/10/01 10:23:30;;;;;;;51.58;33.10;;;;;;;16.65;73.62;99496.47;5075222;28;20024;-60
2022/10/01 10:26:01;;;;;;;52.45;34.28;;;;;;;16.65;73.74;99492.94;5074774;28;20048;-60
2022/10/01 10:28:38;;;;;;;50.08;34.28;;;;;;;16.63;74.00;99487.69;5073449;28;20025;-62
2022/10/01 10:31:12;;;;;;;49.53;33.95;;;;;;;16.78;73.85;99487.00;5074027;28;20043;-62
2022/10/01 10:33:45;;;;;;;52.78;33.10;;;;;;;16.85;73.66;99489.84;5075184;28;20032;-63
2022/10/01 10:36:14;;;;;;;51.30;32.28;;;;;;;16.86;73.09;99484.28;5073533;28;20472;-61
2022/10/01 10:38:44;;;;;;;46.20;30.95;;;;;;;16.70;73.61;99451.88;5074390;28;20048;-59
2022/10/01 10:41:18;;;;;;;46.25;32.60;;;;;;;16.90;73.43;99482.06;5074012;28;20607;-61
2022/10/01 10:43:47;;;;;;;46.60;32.58;;;;;;;16.91;74.26;99470.25;5074629;28;20028;-61
2022/10/01 10:46:29;;;;;;;50.97;33.33;;;;;;;17.07;73.59;99480.19;5074111;28;20510;-61
2022/10/01 10:49:05;;;;;;;51.17;32.50;;;;;;;17.20;73.54;99471.50;5073172;28;20048;-62
2022/10/01 10:51:47;;;;;;;46.03;31.13;;;;;;;17.33;73.26;99474.47;5073156;28;20474;-61
2022/10/01 10:54:36;;;;;;;43.83;31.95;;;;;;;17.40;73.15;99466.50;5074246;28;20036;-61
2022/10/01 10:57:20;;;;;;;48.53;32.95;;;;;;;17.38;72.73;99465.84;5073434;28;20024;-61
2022/10/01 11:00:15;;;;;;;47.58;34.65;;;;;;;17.47;72.49;99469.34;5073624;28;20025;-62
2022/10/01 11:02:49;;;;;;;43.05;30.25;;;;;;;17.34;72.44;99470.75;5074110;28;20493;-62
2022/10/01 11:05:19;;;;;;;39.72;29.20;;;;;;;17.24;72.78;99469.28;5073031;28;20036;-60
2022/10/01 11:07:46;;;;;;;47.95;32.75;;;;;;;17.16;73.43;99462.06;5073931;28;20056;-60
2022/10/01 11:10:21;;;;;;;50.78;31.48;;;;;;;17.14;74.38;99454.09;5074065;28;20033;-61
2022/10/01 11:13:14;;;;;;;37.45;27.48;;;;;;;17.25;73.24;99457.47;5074528;28;20039;-60
2022/10/01 11:16:17;;;;;;;31.48;24.20;;;;;;;17.30;73.21;99455.88;5073206;28;20052;-62
2022/10/01 11:18:42;;;;;;;34.97;25.77;;;;;;;17.22;73.43;99454.06;5072621;28;20059;-61
2022/10/01 11:21:40;;;;;;;38.00;25.35;;;;;;;17.33;72.83;99458.25;5073989;28;20075;-61
2022/10/01 11:24:40;;;;;;;36.75;25.90;;;;;;;17.27;72.75;99453.53;5073015;28;20052;-61
2022/10/01 11:27:25;;;;;;;39.83;27.33;;;;;;;17.19;73.17;99446.31;5073452;28;20056;-61
2022/10/01 11:29:56;;;;;;;42.97;29.20;;;;;;;17.05;74.03;99438.94;5073152;28;20044;-63
2022/10/01 11:32:44;;;;;;;39.25;29.42;;;;;;;17.09;74.21;99434.88;5073791;28;20044;-61
2022/10/01 11:35:18;;;;;;;39.80;30.40;;;;;;;17.08;73.66;99430.47;5073396;28;20036;-61
2022/10/01 11:37:49;;;;;;;44.75;30.15;;;;;;;17.02;73.64;99423.91;5073124;28;20025;-59
2022/10/01 11:40:32;;;;;;;44.13;29.45;;;;;;;17.10;74.37;99424.88;5073616;28;20039;-61